createdAt,value
2017-08-31T00:02:06.521Z,74.30
2017-08-31T00:04:34.000Z,74.39
2017-08-31T00:07:01.489Z,74.10
2017-08-31T00:09:28.986Z,74.32
2017-08-31T00:11:56.473Z,74.61
2017-08-31T00:14:23.962Z,74.62
2017-08-31T00:16:51.421Z,74.49
2017-08-31T00:19:18.910Z,74.84
2017-08-31T00:21:46.366Z,75.23
2017-08-31T00:24:13.862Z,75.05
2017-08-31T00:26:41.317Z,75.50
2017-08-31T00:29:08.790Z,75.26
2017-08-31T00:31:36.239Z,75.28
2017-08-31T00:34:03.705Z,75.53
2017-08-31T00:36:31.176Z,76.07
2017-08-31T00:38:58.633Z,75.67
2017-08-31T00:41:26.126Z,75.84
2017-08-31T00:43:53.579Z,75.55
2017-08-31T00:46:21.090Z,75.28
2017-08-31T00:48:48.558Z,75.10
2017-08-31T00:51:16.055Z,75.06
2017-08-31T00:53:43.515Z,75.10
2017-08-31T00:56:12.007Z,75.37
2017-08-31T00:58:39.494Z,75.42
2017-08-31T01:01:06.941Z,75.16
2017-08-31T01:03:34.439Z,75.54
2017-08-31T01:06:01.898Z,75.60
2017-08-31T01:08:29.393Z,75.63
2017-08-31T01:10:56.862Z,75.56
2017-08-31T01:13:24.346Z,75.46
2017-08-31T01:15:51.816Z,75.51
2017-08-31T01:18:19.311Z,75.28
2017-08-31T01:20:46.799Z,75.28
2017-08-31T01:23:14.273Z,75.85
2017-08-31T01:25:41.726Z,76.17
2017-08-31T01:28:09.213Z,75.85
2017-08-31T01:30:36.698Z,75.88
2017-08-31T01:33:04.141Z,75.86
2017-08-31T01:35:31.636Z,75.81
2017-08-31T01:37:59.106Z,76.11
2017-08-31T01:40:26.594Z,76.05
2017-08-31T01:42:54.077Z,75.99
2017-08-31T01:45:21.567Z,76.24
2017-08-31T01:47:49.050Z,76.08
2017-08-31T01:50:16.524Z,75.67
2017-08-31T01:52:43.990Z,75.44
2017-08-31T01:55:11.490Z,75.29
2017-08-31T01:57:38.938Z,75.50
2017-08-31T02:00:06.421Z,75.55
2017-08-31T02:02:33.917Z,75.59
2017-08-31T02:05:01.391Z,75.51
2017-08-31T02:07:28.873Z,75.19
2017-08-31T02:09:56.335Z,75.14
2017-08-31T02:12:23.859Z,75.02
2017-08-31T02:14:51.312Z,75.09
2017-08-31T02:17:18.801Z,75.27
2017-08-31T02:19:46.569Z,75.55
2017-08-31T02:22:14.058Z,75.69
2017-08-31T02:24:41.557Z,75.52
2017-08-31T02:27:09.904Z,75.65
2017-08-31T02:29:37.420Z,75.57
2017-08-31T02:32:04.946Z,76.40
2017-08-31T02:34:32.434Z,76.33
2017-08-31T02:36:59.898Z,76.34
2017-08-31T02:39:27.393Z,77.19
2017-08-31T02:41:54.879Z,77.51
2017-08-31T02:44:22.476Z,77.88
2017-08-31T02:46:49.920Z,77.93
2017-08-31T02:49:17.375Z,77.99
2017-08-31T02:51:44.902Z,78.26
2017-08-31T02:54:12.360Z,77.72
2017-08-31T02:56:39.868Z,77.75
2017-08-31T02:59:07.339Z,77.63
2017-08-31T03:01:34.860Z,78.25
2017-08-31T03:04:02.333Z,78.23
2017-08-31T03:06:29.847Z,78.34
2017-08-31T03:08:57.309Z,78.61
2017-08-31T03:11:24.822Z,78.66
2017-08-31T03:13:52.308Z,78.34
2017-08-31T03:16:19.913Z,77.88
2017-08-31T03:18:47.374Z,77.64
2017-08-31T03:21:14.829Z,77.74
2017-08-31T03:23:42.332Z,77.78
2017-08-31T03:26:09.802Z,77.84
2017-08-31T03:28:37.304Z,77.94
2017-08-31T03:31:04.767Z,78.02
2017-08-31T03:33:32.255Z,78.03
2017-08-31T03:35:59.741Z,78.12
2017-08-31T03:38:27.305Z,78.54
2017-08-31T03:40:54.780Z,78.82
2017-08-31T03:43:22.293Z,79.20
2017-08-31T03:45:49.786Z,79.12
2017-08-31T03:48:17.267Z,79.11
2017-08-31T03:50:44.844Z,78.98
2017-08-31T03:53:12.311Z,78.47
2017-08-31T03:55:39.792Z,78.70
2017-08-31T03:58:07.267Z,78.05
2017-08-31T04:00:34.789Z,78.06
2017-08-31T04:03:02.259Z,77.90
2017-08-31T04:05:29.740Z,77.96
2017-08-31T04:07:57.210Z,77.70
2017-08-31T04:10:24.718Z,77.90
2017-08-31T04:12:52.176Z,77.83
2017-08-31T04:15:19.723Z,77.87
2017-08-31T04:17:47.183Z,77.76
2017-08-31T04:20:14.651Z,78.15
2017-08-31T04:22:42.144Z,77.99
2017-08-31T04:25:09.665Z,78.17
2017-08-31T04:27:37.690Z,79.01
2017-08-31T04:30:05.778Z,79.04
2017-08-31T04:32:33.261Z,78.90
2017-08-31T04:35:00.710Z,79.79
2017-08-31T04:37:28.194Z,79.40
2017-08-31T04:39:55.662Z,79.13
2017-08-31T04:42:23.286Z,79.07
2017-08-31T04:44:50.762Z,78.82
2017-08-31T04:47:18.247Z,78.92
2017-08-31T04:49:45.728Z,79.02
2017-08-31T04:52:13.192Z,79.34
2017-08-31T04:54:40.670Z,79.81
2017-08-31T04:57:08.621Z,80.14
2017-08-31T04:59:36.108Z,80.25
2017-08-31T05:02:03.585Z,80.24
2017-08-31T05:04:31.097Z,80.02
2017-08-31T05:06:58.595Z,80.03
2017-08-31T05:09:26.089Z,80.26
2017-08-31T05:11:53.549Z,80.32
2017-08-31T05:14:21.158Z,80.79
2017-08-31T05:16:48.645Z,80.79
2017-08-31T05:19:16.111Z,81.55
2017-08-31T05:21:43.646Z,81.53
2017-08-31T05:24:11.137Z,82.10
2017-08-31T05:26:38.623Z,81.72
2017-08-31T05:29:06.110Z,81.83
2017-08-31T05:31:33.593Z,81.82
2017-08-31T05:34:01.106Z,81.64
2017-08-31T05:36:28.603Z,81.30
2017-08-31T05:38:56.094Z,81.58
2017-08-31T05:41:23.594Z,82.24
2017-08-31T05:43:51.074Z,81.96
2017-08-31T05:46:18.562Z,81.82
2017-08-31T05:48:46.040Z,81.57
2017-08-31T05:51:13.550Z,81.43
2017-08-31T05:53:41.046Z,81.54
2017-08-31T05:56:08.560Z,81.45
2017-08-31T05:58:36.046Z,81.18
2017-08-31T06:01:03.522Z,81.64
2017-08-31T06:03:31.053Z,81.30
2017-08-31T06:05:58.553Z,81.50
2017-08-31T06:08:26.054Z,81.27
2017-08-31T06:10:53.538Z,81.47
2017-08-31T06:13:21.033Z,81.63
2017-08-31T06:15:48.500Z,81.81
2017-08-31T06:18:16.046Z,82.01
2017-08-31T06:20:43.543Z,82.53
2017-08-31T06:23:11.048Z,81.70
2017-08-31T06:25:38.530Z,80.80
2017-08-31T06:28:06.079Z,80.95
2017-08-31T06:30:33.555Z,80.00
2017-08-31T06:33:01.042Z,80.14
2017-08-31T06:35:28.522Z,80.03
2017-08-31T06:37:55.995Z,79.44
2017-08-31T06:40:23.504Z,79.55
2017-08-31T06:42:51.008Z,78.74
2017-08-31T06:45:18.494Z,78.93
2017-08-31T06:47:45.987Z,78.52
2017-08-31T06:50:13.514Z,78.49
2017-08-31T06:52:40.992Z,77.87
2017-08-31T06:55:08.507Z,78.38
2017-08-31T06:57:36.141Z,77.74
2017-08-31T07:00:03.634Z,76.97
2017-08-31T07:02:31.120Z,77.06
2017-08-31T07:04:58.622Z,77.10
2017-08-31T07:07:26.078Z,77.38
2017-08-31T07:09:53.561Z,77.42
2017-08-31T07:12:21.058Z,77.09
2017-08-31T07:14:48.538Z,75.61
2017-08-31T07:17:16.038Z,76.07
2017-08-31T07:19:43.492Z,75.20
2017-08-31T07:22:10.997Z,75.03
2017-08-31T07:24:38.503Z,75.09
2017-08-31T07:27:06.023Z,75.28
2017-08-31T07:29:33.593Z,75.55
2017-08-31T07:32:01.064Z,75.04
2017-08-31T07:34:29.482Z,74.82
2017-08-31T07:36:57.518Z,75.89
2017-08-31T07:39:25.061Z,75.68
2017-08-31T07:41:52.518Z,75.44
2017-08-31T07:44:20.024Z,75.25
2017-08-31T07:46:47.500Z,75.41
2017-08-31T07:49:15.002Z,75.41
2017-08-31T07:51:42.484Z,75.39
2017-08-31T07:54:10.066Z,75.79
2017-08-31T07:56:37.618Z,75.39
2017-08-31T07:59:05.435Z,75.40
2017-08-31T08:01:32.930Z,74.88
2017-08-31T08:04:00.427Z,74.74
2017-08-31T08:06:27.890Z,74.77
2017-08-31T08:08:55.395Z,73.99
2017-08-31T08:11:22.928Z,74.48
2017-08-31T08:13:50.443Z,74.69
2017-08-31T08:16:17.948Z,74.61
2017-08-31T08:18:45.440Z,74.34
2017-08-31T08:21:12.936Z,74.93
2017-08-31T08:23:40.422Z,75.07
2017-08-31T08:26:08.997Z,75.21
2017-08-31T08:28:36.456Z,75.36
2017-08-31T08:31:04.792Z,75.69
2017-08-31T08:33:32.284Z,75.08
2017-08-31T08:35:59.795Z,75.65
2017-08-31T08:38:27.937Z,76.01
2017-08-31T08:40:55.417Z,75.85
2017-08-31T08:43:22.929Z,75.64
2017-08-31T08:45:51.179Z,75.46
2017-08-31T08:48:18.653Z,74.52
2017-08-31T08:50:46.271Z,73.77
2017-08-31T08:53:13.719Z,73.68
2017-08-31T08:55:41.286Z,73.44
2017-08-31T08:58:08.764Z,72.80
2017-08-31T09:00:37.091Z,71.71
2017-08-31T09:03:05.291Z,70.87
2017-08-31T09:05:32.803Z,69.63
2017-08-31T09:08:00.368Z,68.28
2017-08-31T09:10:27.854Z,68.71
2017-08-31T09:12:55.346Z,68.61
2017-08-31T09:15:22.859Z,67.91
2017-08-31T09:17:50.358Z,66.76
2017-08-31T09:20:17.847Z,66.52
2017-08-31T09:22:45.359Z,66.76
2017-08-31T09:25:13.274Z,66.25
2017-08-31T09:27:40.796Z,66.12
2017-08-31T09:30:08.263Z,65.62
2017-08-31T09:32:35.827Z,65.22
2017-08-31T09:35:03.305Z,64.81
2017-08-31T09:37:30.768Z,65.21
2017-08-31T09:39:58.939Z,64.95
2017-08-31T09:42:26.436Z,64.61
2017-08-31T09:44:53.959Z,64.35
2017-08-31T09:47:21.434Z,64.27
2017-08-31T09:49:48.919Z,63.34
2017-08-31T09:52:16.465Z,63.26
2017-08-31T09:54:43.958Z,63.58
2017-08-31T09:57:11.424Z,63.42
2017-08-31T09:59:38.921Z,63.14
2017-08-31T10:02:06.407Z,62.66
2017-08-31T10:04:33.889Z,62.00
2017-08-31T10:07:01.402Z,61.57
2017-08-31T10:09:28.966Z,61.83
2017-08-31T10:11:56.567Z,61.47
2017-08-31T10:14:24.087Z,60.81
2017-08-31T10:16:51.575Z,60.42
2017-08-31T10:19:19.075Z,60.98
2017-08-31T10:21:46.630Z,61.83
2017-08-31T10:24:14.111Z,61.82
2017-08-31T10:26:41.608Z,60.83
2017-08-31T10:29:09.222Z,61.31
2017-08-31T10:31:36.676Z,61.80
2017-08-31T10:34:04.599Z,61.60
2017-08-31T10:36:32.096Z,60.75
2017-08-31T10:38:59.567Z,60.51
2017-08-31T10:41:27.133Z,60.00
2017-08-31T10:43:55.365Z,60.28
2017-08-31T10:46:22.855Z,59.92
2017-08-31T10:48:50.344Z,59.91
2017-08-31T10:51:17.814Z,60.35
2017-08-31T10:53:45.344Z,60.39
2017-08-31T10:56:13.479Z,59.63
2017-08-31T10:58:40.985Z,59.52
2017-08-31T11:01:09.668Z,61.06
2017-08-31T11:03:37.180Z,62.33
2017-08-31T11:06:05.054Z,62.43
2017-08-31T11:08:32.543Z,61.66
2017-08-31T11:11:00.093Z,60.06
2017-08-31T11:13:27.582Z,60.56
2017-08-31T11:15:55.079Z,60.54
2017-08-31T11:18:22.541Z,60.81
2017-08-31T11:20:50.053Z,60.92
2017-08-31T11:23:17.616Z,60.71
2017-08-31T11:25:45.115Z,60.86
2017-08-31T11:28:13.606Z,59.82
2017-08-31T11:30:41.044Z,60.22
2017-08-31T11:33:08.652Z,59.43
2017-08-31T11:35:36.258Z,58.94
2017-08-31T11:38:03.688Z,58.14
2017-08-31T11:40:31.206Z,58.12
2017-08-31T11:42:58.703Z,57.68
2017-08-31T11:45:26.295Z,56.46
2017-08-31T11:47:53.783Z,57.97
2017-08-31T11:50:21.274Z,57.53
2017-08-31T11:52:48.740Z,57.73
2017-08-31T11:55:16.296Z,57.91
2017-08-31T11:57:44.992Z,57.47
2017-08-31T12:00:12.518Z,58.75
2017-08-31T12:02:40.029Z,60.14
2017-08-31T12:05:07.514Z,59.88
2017-08-31T12:07:35.014Z,60.30
2017-08-31T12:10:02.466Z,60.23
2017-08-31T12:12:29.958Z,59.90
2017-08-31T12:14:57.423Z,60.10
2017-08-31T12:17:25.590Z,59.62
2017-08-31T12:19:53.056Z,59.93
2017-08-31T12:22:20.607Z,61.19
2017-08-31T12:24:48.108Z,60.94
2017-08-31T12:27:15.791Z,60.33
2017-08-31T12:29:43.249Z,59.91
2017-08-31T12:32:11.292Z,59.01
2017-08-31T12:34:38.818Z,57.01
2017-08-31T12:37:06.411Z,54.72
2017-08-31T12:39:33.961Z,55.14
2017-08-31T12:42:02.328Z,55.78
2017-08-31T12:44:29.806Z,54.48
2017-08-31T12:46:57.299Z,54.83
2017-08-31T12:49:24.795Z,54.66
2017-08-31T12:51:52.305Z,53.54
2017-08-31T12:54:19.829Z,53.84
2017-08-31T12:56:47.328Z,53.44
2017-08-31T12:59:15.419Z,53.40
2017-08-31T13:01:42.935Z,53.45
2017-08-31T13:04:10.397Z,53.42
2017-08-31T13:06:39.087Z,53.08
2017-08-31T13:09:07.428Z,53.63
2017-08-31T13:11:34.921Z,54.50
2017-08-31T13:14:02.471Z,54.88
2017-08-31T13:16:29.974Z,54.89
2017-08-31T13:18:58.190Z,55.31
2017-08-31T13:21:25.866Z,55.97
2017-08-31T13:23:53.349Z,56.17
2017-08-31T13:26:20.826Z,56.48
2017-08-31T13:28:48.320Z,55.54
2017-08-31T13:31:15.812Z,55.56
2017-08-31T13:33:43.307Z,55.57
2017-08-31T13:36:10.803Z,55.35
2017-08-31T13:38:39.789Z,56.49
2017-08-31T13:41:07.964Z,57.11
2017-08-31T13:43:35.485Z,56.91
2017-08-31T13:46:02.990Z,56.74
2017-08-31T13:48:30.533Z,57.21
2017-08-31T13:50:58.021Z,57.17
2017-08-31T13:53:25.502Z,56.82
2017-08-31T13:55:53.041Z,57.02
2017-08-31T13:58:20.521Z,56.96
2017-08-31T14:00:48.026Z,57.15
2017-08-31T14:03:15.536Z,57.23
2017-08-31T14:05:43.067Z,57.40
2017-08-31T14:08:10.538Z,56.97
2017-08-31T14:10:38.079Z,57.44
2017-08-31T14:13:05.553Z,57.76
2017-08-31T14:15:33.057Z,57.48
2017-08-31T14:18:00.549Z,58.20
2017-08-31T14:20:28.808Z,57.82
2017-08-31T14:22:56.368Z,57.76
2017-08-31T14:25:23.945Z,58.34
2017-08-31T14:27:51.472Z,58.59
2017-08-31T14:30:18.951Z,57.95
2017-08-31T14:32:46.566Z,57.53
2017-08-31T14:35:14.057Z,56.87
2017-08-31T14:37:42.146Z,56.18
2017-08-31T14:40:09.629Z,56.96
2017-08-31T14:42:37.118Z,58.07
2017-08-31T14:45:05.258Z,58.19
2017-08-31T14:47:32.760Z,57.93
2017-08-31T14:50:00.224Z,57.98
2017-08-31T14:52:27.781Z,58.51
2017-08-31T14:54:55.299Z,59.39
2017-08-31T14:57:23.687Z,59.42
2017-08-31T14:59:51.963Z,59.32
2017-08-31T15:02:19.439Z,59.70
2017-08-31T15:04:46.941Z,59.76
2017-08-31T15:07:14.424Z,59.86
2017-08-31T15:09:41.981Z,59.08
2017-08-31T15:12:10.081Z,59.11
2017-08-31T15:14:37.593Z,59.38
2017-08-31T15:17:05.165Z,58.73
2017-08-31T15:19:33.756Z,58.83
2017-08-31T15:22:01.262Z,60.19
2017-08-31T15:24:28.776Z,60.42
2017-08-31T15:26:56.312Z,59.97
2017-08-31T15:29:23.778Z,59.35
2017-08-31T15:31:51.283Z,59.42
2017-08-31T15:34:18.780Z,59.71
2017-08-31T15:36:47.324Z,60.19
2017-08-31T15:39:14.830Z,59.70
2017-08-31T15:41:42.379Z,58.57
2017-08-31T15:44:09.903Z,59.79
2017-08-31T15:46:38.091Z,64.98
2017-08-31T15:49:05.570Z,61.65
2017-08-31T15:51:33.062Z,57.19
2017-08-31T15:54:00.568Z,57.60
2017-08-31T15:56:28.443Z,58.06
2017-08-31T15:58:56.609Z,57.84
2017-08-31T16:01:24.113Z,58.09
2017-08-31T16:03:51.842Z,56.95
2017-08-31T16:06:19.342Z,57.60
2017-08-31T16:08:46.845Z,58.59
2017-08-31T16:11:14.344Z,58.79
2017-08-31T16:13:42.002Z,58.34
2017-08-31T16:16:09.537Z,56.54
2017-08-31T16:18:37.063Z,56.67
2017-08-31T16:21:05.024Z,57.06
2017-08-31T16:23:32.701Z,57.13
2017-08-31T16:26:00.219Z,57.47
2017-08-31T16:28:27.704Z,58.19
2017-08-31T16:30:55.200Z,58.08
2017-08-31T16:33:22.679Z,55.97
2017-08-31T16:35:50.768Z,56.32
2017-08-31T16:38:18.254Z,56.60
2017-08-31T16:40:46.807Z,56.40
2017-08-31T16:43:14.285Z,56.21
2017-08-31T16:45:41.772Z,56.12
2017-08-31T16:48:09.306Z,55.88
2017-08-31T16:50:36.776Z,56.26
2017-08-31T16:53:04.456Z,56.35
2017-08-31T16:55:32.107Z,56.05
2017-08-31T16:57:59.591Z,56.89
2017-08-31T17:00:27.082Z,56.78
2017-08-31T17:02:54.556Z,57.21
2017-08-31T17:05:22.056Z,56.87
2017-08-31T17:07:49.611Z,56.80
2017-08-31T17:10:17.086Z,57.23
2017-08-31T17:12:44.578Z,56.68
2017-08-31T17:15:12.090Z,56.58
2017-08-31T17:17:39.547Z,57.02
2017-08-31T17:20:07.035Z,57.24
2017-08-31T17:22:34.517Z,56.96
2017-08-31T17:25:02.049Z,57.43
2017-08-31T17:27:29.538Z,57.34
2017-08-31T17:29:57.054Z,57.48
2017-08-31T17:32:24.574Z,57.95
2017-08-31T17:34:52.043Z,58.29
2017-08-31T17:37:19.541Z,58.85
2017-08-31T17:39:47.071Z,58.49
2017-08-31T17:42:14.583Z,58.00
2017-08-31T17:44:42.050Z,58.13
2017-08-31T17:47:09.579Z,58.41
2017-08-31T17:49:37.081Z,58.61
2017-08-31T17:52:04.927Z,58.16
2017-08-31T17:54:32.428Z,59.34
2017-08-31T17:57:00.031Z,58.32
2017-08-31T17:59:27.487Z,58.90
2017-08-31T18:01:54.950Z,59.33
2017-08-31T18:04:22.432Z,58.63
2017-08-31T18:06:49.906Z,57.56
2017-08-31T18:09:17.426Z,57.81
2017-08-31T18:11:44.886Z,57.94
2017-08-31T18:14:12.398Z,59.35
2017-08-31T18:16:39.874Z,58.61
2017-08-31T18:19:07.386Z,59.60
2017-08-31T18:21:34.850Z,58.13
2017-08-31T18:24:02.338Z,58.46
2017-08-31T18:26:29.808Z,59.04
2017-08-31T18:28:57.284Z,59.14
2017-08-31T18:31:24.912Z,59.43
2017-08-31T18:33:52.426Z,59.48
2017-08-31T18:36:19.873Z,60.25
2017-08-31T18:38:47.386Z,61.25
2017-08-31T18:41:14.918Z,59.95
2017-08-31T18:43:42.391Z,60.00
2017-08-31T18:46:09.885Z,62.37
2017-08-31T18:48:37.392Z,60.93
2017-08-31T18:51:05.523Z,60.93
2017-08-31T18:53:32.995Z,60.71
2017-08-31T18:56:00.638Z,60.62
2017-08-31T18:58:28.124Z,60.93
2017-08-31T19:00:55.610Z,62.09
2017-08-31T19:03:23.126Z,61.76
2017-08-31T19:05:50.606Z,60.20
2017-08-31T19:08:18.121Z,61.63
2017-08-31T19:10:45.573Z,61.96
2017-08-31T19:13:13.062Z,61.92
2017-08-31T19:15:40.550Z,62.23
2017-08-31T19:18:08.070Z,61.61
2017-08-31T19:20:35.540Z,61.34
2017-08-31T19:23:03.013Z,61.20
2017-08-31T19:25:30.511Z,60.64
2017-08-31T19:27:57.984Z,60.62
2017-08-31T19:30:25.501Z,60.49
2017-08-31T19:32:52.962Z,60.20
2017-08-31T19:35:20.455Z,60.03
2017-08-31T19:37:47.931Z,59.91
2017-08-31T19:40:15.441Z,59.90
2017-08-31T19:42:42.915Z,59.90
2017-08-31T19:45:10.404Z,59.61
2017-08-31T19:47:37.889Z,59.66
2017-08-31T19:50:05.371Z,59.27
2017-08-31T19:52:32.850Z,59.58
2017-08-31T19:55:00.314Z,59.49
2017-08-31T19:57:27.793Z,59.40
2017-08-31T19:59:55.257Z,59.06
2017-08-31T20:02:22.737Z,59.02
2017-08-31T20:04:50.233Z,59.24
2017-08-31T20:07:17.680Z,59.44
2017-08-31T20:09:45.171Z,59.64
2017-08-31T20:12:12.655Z,59.62
2017-08-31T20:14:40.162Z,59.63
2017-08-31T20:17:07.669Z,59.46
2017-08-31T20:19:35.150Z,59.46
2017-08-31T20:22:02.631Z,59.38
2017-08-31T20:24:30.113Z,59.52
2017-08-31T20:26:57.625Z,59.96
2017-08-31T20:29:25.143Z,59.82
2017-08-31T20:31:52.607Z,59.53
2017-08-31T20:34:20.106Z,59.72
2017-08-31T20:36:47.582Z,59.71
2017-08-31T20:39:15.097Z,59.68
2017-08-31T20:41:42.574Z,59.67
2017-08-31T20:44:10.074Z,59.87
2017-08-31T20:46:37.530Z,59.09
2017-08-31T20:49:05.013Z,61.50
2017-08-31T20:51:32.493Z,61.11
2017-08-31T20:53:59.993Z,60.92
2017-08-31T20:56:27.456Z,60.96
2017-08-31T20:58:54.957Z,60.54
2017-08-31T21:01:22.428Z,61.03
2017-08-31T21:03:49.888Z,60.79
2017-08-31T21:06:17.369Z,60.51
2017-08-31T21:08:44.861Z,60.53
2017-08-31T21:11:12.353Z,60.21
2017-08-31T21:13:39.841Z,60.30
2017-08-31T21:16:07.298Z,60.48
2017-08-31T21:18:34.779Z,60.40
2017-08-31T21:21:02.241Z,60.73
2017-08-31T21:23:29.857Z,60.83
2017-08-31T21:25:57.348Z,60.50
2017-08-31T21:28:24.863Z,60.39
2017-08-31T21:30:52.366Z,60.52
2017-08-31T21:33:19.909Z,61.07
2017-08-31T21:35:47.385Z,60.76
2017-08-31T21:38:14.851Z,61.32
2017-08-31T21:40:42.360Z,61.50
2017-08-31T21:43:09.861Z,61.26
2017-08-31T21:45:37.377Z,60.97
2017-08-31T21:48:05.029Z,60.46
2017-08-31T21:50:32.500Z,60.33
2017-08-31T21:52:59.995Z,60.68
2017-08-31T21:55:27.451Z,61.16
2017-08-31T21:57:54.950Z,61.09
2017-08-31T22:00:22.422Z,61.32
2017-08-31T22:02:49.943Z,63.37
2017-08-31T22:05:17.419Z,64.30
2017-08-31T22:07:45.170Z,65.01
2017-08-31T22:10:12.671Z,66.09
2017-08-31T22:12:40.155Z,66.85
2017-08-31T22:15:07.649Z,67.75
2017-08-31T22:17:35.106Z,68.15
2017-08-31T22:20:02.598Z,68.32
2017-08-31T22:22:30.072Z,68.26
2017-08-31T22:24:57.567Z,68.42
2017-08-31T22:27:25.076Z,68.77
2017-08-31T22:29:52.567Z,69.48
2017-08-31T22:32:20.043Z,70.64
2017-08-31T22:34:47.496Z,70.31
2017-08-31T22:37:14.981Z,70.02
2017-08-31T22:39:42.437Z,70.19
2017-08-31T22:42:09.938Z,70.23
2017-08-31T22:44:37.430Z,70.28
2017-08-31T22:47:04.945Z,70.24
2017-08-31T22:49:32.443Z,70.29
2017-08-31T22:51:59.931Z,70.73
2017-08-31T22:54:27.425Z,70.57
2017-08-31T22:56:54.902Z,70.70
2017-08-31T22:59:22.421Z,70.71
2017-08-31T23:01:49.903Z,71.20
2017-08-31T23:04:17.387Z,71.66
2017-08-31T23:06:44.841Z,71.76
2017-08-31T23:09:12.351Z,71.79
2017-08-31T23:11:39.817Z,72.05
2017-08-31T23:14:07.271Z,72.20
2017-08-31T23:16:34.762Z,72.42
2017-08-31T23:19:02.231Z,72.31
2017-08-31T23:21:29.722Z,72.33
2017-08-31T23:23:57.190Z,72.22
2017-08-31T23:26:24.701Z,72.26
2017-08-31T23:28:52.165Z,72.24
2017-08-31T23:31:19.650Z,72.35
2017-08-31T23:33:47.116Z,73.04
2017-08-31T23:36:14.775Z,73.16
2017-08-31T23:38:42.270Z,73.15
2017-08-31T23:41:09.764Z,73.01
2017-08-31T23:43:37.266Z,73.09
2017-08-31T23:46:05.727Z,72.98
2017-08-31T23:48:33.213Z,72.67
2017-08-31T23:51:00.679Z,72.72
2017-08-31T23:53:28.203Z,72.80
2017-08-31T23:55:55.700Z,72.81
2017-08-31T23:58:23.181Z,73.44
